createdAt,value
2019-02-20T00:01:41.924Z,4.87
2019-02-20T00:04:11.441Z,4.82
2019-02-20T00:06:40.805Z,4.92
2019-02-20T00:09:10.207Z,4.95
2019-02-20T00:11:39.706Z,4.80
2019-02-20T00:14:09.031Z,4.86
2019-02-20T00:16:38.461Z,4.63
2019-02-20T00:19:07.993Z,4.69
2019-02-20T00:21:37.460Z,4.70
2019-02-20T00:24:06.996Z,4.71
2019-02-20T00:26:36.383Z,4.70
2019-02-20T00:29:06.612Z,4.61
2019-02-20T00:31:36.126Z,4.50
2019-02-20T00:34:05.621Z,4.31
2019-02-20T00:36:35.078Z,4.39
2019-02-20T00:39:06.669Z,4.22
2019-02-20T00:41:36.124Z,4.17
2019-02-20T00:44:33.365Z,4.29
2019-02-20T00:47:12.202Z,4.27
2019-02-20T00:49:45.146Z,4.31
2019-02-20T00:52:37.013Z,4.25
2019-02-20T00:55:07.505Z,4.13
2019-02-20T00:57:36.951Z,4.09
2019-02-20T01:00:07.170Z,4.04
2019-02-20T01:02:36.617Z,4.21
2019-02-20T01:05:07.019Z,4.21
2019-02-20T01:07:36.478Z,3.90
2019-02-20T01:10:06.435Z,3.90
2019-02-20T01:12:35.894Z,3.72
2019-02-20T01:15:05.788Z,3.95
2019-02-20T01:17:35.298Z,3.95
2019-02-20T01:20:05.013Z,4.05
2019-02-20T01:22:34.413Z,3.92
2019-02-20T01:25:03.723Z,3.66
2019-02-20T01:27:33.098Z,3.66
2019-02-20T01:30:02.439Z,3.58
2019-02-20T01:32:32.057Z,3.60
2019-02-20T01:35:01.441Z,3.52
2019-02-20T01:37:30.819Z,3.51
2019-02-20T01:40:00.262Z,3.58
2019-02-20T01:42:29.602Z,3.62
2019-02-20T01:44:58.984Z,3.62
2019-02-20T01:47:35.508Z,3.61
2019-02-20T01:50:05.513Z,3.58
2019-02-20T01:52:34.884Z,3.58
2019-02-20T01:55:04.284Z,3.63
2019-02-20T01:57:33.669Z,3.63
2019-02-20T02:00:02.983Z,3.62
2019-02-20T02:02:32.350Z,3.45
2019-02-20T02:05:01.722Z,3.14
2019-02-20T02:07:31.093Z,3.14
2019-02-20T02:10:00.542Z,2.69
2019-02-20T02:12:29.922Z,2.85
2019-02-20T02:14:59.308Z,2.85
2019-02-20T02:17:28.681Z,3.52
2019-02-20T02:19:58.358Z,3.72
2019-02-20T02:22:27.710Z,3.57
2019-02-20T02:24:57.063Z,3.30
2019-02-20T02:27:26.443Z,3.01
2019-02-20T02:29:55.758Z,3.01
2019-02-20T02:32:25.093Z,3.03
2019-02-20T02:34:54.397Z,3.11
2019-02-20T02:37:23.756Z,3.08
2019-02-20T02:39:53.108Z,3.06
2019-02-20T02:42:22.430Z,3.01
2019-02-20T02:44:51.771Z,2.93
2019-02-20T02:47:21.222Z,2.98
2019-02-20T02:49:50.570Z,3.00
2019-02-20T02:52:19.934Z,2.92
2019-02-20T02:54:49.464Z,2.78
2019-02-20T02:57:18.847Z,3.00
2019-02-20T02:59:48.235Z,2.94
2019-02-20T03:02:18.079Z,2.80
2019-02-20T03:04:47.376Z,2.82
2019-02-20T03:07:16.702Z,2.74
2019-02-20T03:09:46.032Z,2.61
2019-02-20T03:12:15.354Z,2.41
2019-02-20T03:14:44.716Z,2.35
2019-02-20T03:17:14.055Z,2.07
2019-02-20T03:19:43.398Z,2.01
2019-02-20T03:22:12.748Z,1.96
2019-02-20T03:24:42.123Z,1.97
2019-02-20T03:27:11.496Z,2.11
2019-02-20T03:29:41.248Z,2.06
2019-02-20T03:32:10.631Z,2.08
2019-02-20T03:34:39.945Z,2.09
2019-02-20T03:37:09.290Z,2.20
2019-02-20T03:39:38.594Z,2.19
2019-02-20T03:42:07.941Z,2.14
2019-02-20T03:44:37.288Z,2.20
2019-02-20T03:47:06.748Z,2.26
2019-02-20T03:49:36.094Z,2.19
2019-02-20T03:52:05.445Z,2.00
2019-02-20T03:54:34.836Z,2.07
2019-02-20T03:57:04.217Z,2.12
2019-02-20T03:59:33.708Z,2.26
2019-02-20T04:02:03.095Z,2.23
2019-02-20T04:04:32.434Z,2.18
2019-02-20T04:07:01.766Z,2.13
2019-02-20T04:09:31.107Z,2.05
2019-02-20T04:12:00.406Z,2.19
2019-02-20T04:14:29.970Z,2.19
2019-02-20T04:16:59.301Z,1.98
2019-02-20T04:19:28.622Z,1.81
2019-02-20T04:21:57.982Z,1.74
2019-02-20T04:24:27.332Z,1.70
2019-02-20T04:26:56.659Z,1.72
2019-02-20T04:29:26.020Z,1.69
2019-02-20T04:31:55.454Z,1.68
2019-02-20T04:34:24.898Z,1.51
2019-02-20T04:36:54.237Z,1.32
2019-02-20T04:39:23.557Z,1.26
2019-02-20T04:41:52.921Z,1.24
2019-02-20T04:44:22.531Z,0.99
2019-02-20T04:46:52.244Z,0.91
2019-02-20T04:49:21.609Z,0.97
2019-02-20T04:51:51.008Z,1.23
2019-02-20T04:54:20.356Z,1.40
2019-02-20T04:56:49.787Z,1.47
2019-02-20T04:59:19.148Z,1.58
2019-02-20T05:01:49.218Z,1.81
2019-02-20T05:04:18.587Z,1.67
2019-02-20T05:06:47.958Z,1.68
2019-02-20T05:09:17.312Z,1.50
2019-02-20T05:11:46.724Z,1.49
2019-02-20T05:14:16.033Z,1.35
2019-02-20T05:16:45.377Z,1.25
2019-02-20T05:19:14.738Z,1.18
2019-02-20T05:21:44.045Z,1.32
2019-02-20T05:24:23.788Z,1.47
2019-02-20T05:26:44.522Z,1.52
2019-02-20T05:29:13.971Z,1.44
2019-02-20T05:31:43.313Z,1.46
2019-02-20T05:34:12.673Z,1.55
2019-02-20T05:36:42.009Z,1.65
2019-02-20T05:39:11.429Z,2.10
2019-02-20T05:41:40.790Z,2.46
2019-02-20T05:44:10.116Z,2.86
2019-02-20T05:46:39.457Z,2.98
2019-02-20T05:49:08.901Z,2.91
2019-02-20T05:51:38.244Z,2.91
2019-02-20T05:54:07.643Z,3.09
2019-02-20T05:56:37.014Z,3.09
2019-02-20T05:59:06.371Z,2.09
2019-02-20T06:01:35.760Z,3.07
2019-02-20T06:04:05.228Z,3.27
2019-02-20T06:06:34.609Z,3.59
2019-02-20T06:09:05.715Z,3.66
2019-02-20T06:11:35.067Z,3.93
2019-02-20T06:14:04.376Z,4.08
2019-02-20T06:16:33.715Z,4.04
2019-02-20T06:19:03.022Z,4.28
2019-02-20T06:21:32.363Z,4.50
2019-02-20T06:24:01.760Z,4.83
2019-02-20T06:26:31.128Z,4.95
2019-02-20T06:29:00.493Z,5.17
2019-02-20T06:31:29.822Z,5.43
2019-02-20T06:33:59.121Z,5.59
2019-02-20T06:36:28.463Z,5.57
2019-02-20T06:38:58.338Z,5.56
2019-02-20T06:41:27.674Z,5.93
2019-02-20T06:43:56.989Z,6.14
2019-02-20T06:46:26.337Z,6.18
2019-02-20T06:48:55.670Z,5.91
2019-02-20T06:51:25.016Z,5.66
2019-02-20T06:53:54.375Z,5.82
2019-02-20T06:56:23.741Z,6.51
2019-02-20T06:58:53.178Z,6.60
2019-02-20T07:01:22.550Z,6.78
2019-02-20T07:03:51.860Z,7.00
2019-02-20T07:06:27.021Z,7.16
2019-02-20T07:09:32.645Z,7.22
2019-02-20T07:12:45.664Z,7.44
2019-02-20T07:15:39.967Z,7.89
2019-02-20T07:18:30.729Z,7.34
2019-02-20T07:21:37.014Z,7.19
2019-02-20T07:24:33.090Z,7.40
2019-02-20T07:27:27.717Z,7.20
2019-02-20T07:30:01.660Z,7.26
2019-02-20T07:32:31.662Z,7.18
2019-02-20T07:35:01.050Z,7.23
2019-02-20T07:37:30.410Z,7.21
2019-02-20T07:39:59.936Z,7.47
2019-02-20T07:42:29.418Z,7.67
2019-02-20T07:44:58.769Z,8.24
2019-02-20T07:47:28.107Z,8.69
2019-02-20T07:49:57.577Z,9.49
2019-02-20T07:52:26.985Z,9.58
2019-02-20T07:54:56.316Z,9.64
2019-02-20T07:57:25.765Z,8.98
2019-02-20T07:59:55.563Z,9.82
2019-02-20T08:02:24.989Z,9.94
2019-02-20T08:04:54.885Z,9.62
2019-02-20T08:07:24.386Z,9.42
2019-02-20T08:09:53.787Z,9.65
2019-02-20T08:12:23.402Z,10.02
2019-02-20T08:14:52.741Z,9.73
2019-02-20T08:17:22.099Z,8.83
2019-02-20T08:19:51.534Z,8.74
2019-02-20T08:22:20.912Z,9.01
2019-02-20T08:24:50.327Z,9.53
2019-02-20T08:27:19.671Z,10.56
2019-02-20T08:29:49.027Z,10.55
2019-02-20T08:32:18.505Z,10.10
2019-02-20T08:34:47.876Z,10.68
2019-02-20T08:37:17.251Z,11.20
2019-02-20T08:39:46.605Z,11.02
2019-02-20T08:42:16.125Z,10.97
2019-02-20T08:44:45.788Z,11.29
2019-02-20T08:47:15.183Z,11.73
2019-02-20T08:49:44.827Z,11.94
2019-02-20T08:52:14.227Z,11.80
2019-02-20T08:54:43.606Z,11.75
2019-02-20T08:57:12.919Z,11.92
2019-02-20T08:59:42.272Z,11.81
2019-02-20T09:02:11.686Z,11.73
2019-02-20T09:04:41.028Z,12.01
2019-02-20T09:07:10.748Z,11.75
2019-02-20T09:09:40.118Z,11.65
2019-02-20T09:12:09.510Z,12.36
2019-02-20T09:14:38.879Z,12.49
2019-02-20T09:17:08.219Z,12.27
2019-02-20T09:19:37.563Z,12.24
2019-02-20T09:22:06.986Z,12.62
2019-02-20T09:24:36.346Z,12.93
2019-02-20T09:27:05.715Z,12.89
2019-02-20T09:29:35.064Z,13.22
2019-02-20T09:32:04.427Z,13.18
2019-02-20T09:34:33.795Z,13.30
2019-02-20T09:37:03.235Z,13.68
2019-02-20T09:39:38.273Z,14.02
2019-02-20T09:42:12.608Z,14.32
2019-02-20T09:44:46.827Z,14.47
2019-02-20T09:47:16.267Z,15.16
2019-02-20T09:49:45.661Z,15.37
2019-02-20T09:52:15.045Z,15.62
2019-02-20T09:54:44.531Z,15.92
2019-02-20T09:57:14.046Z,15.66
2019-02-20T09:59:43.414Z,15.98
2019-02-20T10:02:12.809Z,16.17
2019-02-20T10:04:42.154Z,16.14
2019-02-20T10:07:12.024Z,16.44
2019-02-20T10:09:41.399Z,16.72
2019-02-20T10:12:10.773Z,16.42
2019-02-20T10:14:40.464Z,16.32
2019-02-20T10:17:09.890Z,16.38
2019-02-20T10:19:39.232Z,16.67
2019-02-20T10:22:08.571Z,16.75
2019-02-20T10:24:37.966Z,16.65
2019-02-20T10:27:07.337Z,16.24
2019-02-20T10:29:36.659Z,16.28
2019-02-20T10:32:06.065Z,16.45
2019-02-20T10:34:35.464Z,16.28
2019-02-20T10:37:04.810Z,16.05
2019-02-20T10:39:34.276Z,16.38
2019-02-20T10:42:03.662Z,16.62
2019-02-20T10:44:33.046Z,16.29
2019-02-20T10:47:02.706Z,16.80
2019-02-20T10:49:32.067Z,16.73
2019-02-20T10:52:01.451Z,16.45
2019-02-20T10:54:30.799Z,16.46
2019-02-20T10:57:00.165Z,17.18
2019-02-20T10:59:29.599Z,16.60
2019-02-20T11:01:58.978Z,16.41
2019-02-20T11:04:28.448Z,16.73
2019-02-20T11:06:57.806Z,16.91
2019-02-20T11:09:27.180Z,16.83
2019-02-20T11:11:56.556Z,16.88
2019-02-20T11:14:25.918Z,17.04
2019-02-20T11:16:55.279Z,16.68
2019-02-20T11:19:24.607Z,16.62
2019-02-20T11:21:53.952Z,16.64
2019-02-20T11:24:23.336Z,16.75
2019-02-20T11:26:55.126Z,16.90
2019-02-20T11:29:23.767Z,16.68
2019-02-20T11:31:54.111Z,16.40
2019-02-20T11:34:23.460Z,16.51
2019-02-20T11:36:52.779Z,16.64
2019-02-20T11:39:22.220Z,16.78
2019-02-20T11:41:51.683Z,16.80
2019-02-20T11:44:21.386Z,16.78
2019-02-20T11:46:50.798Z,17.18
2019-02-20T11:49:20.235Z,16.88
2019-02-20T11:51:49.581Z,16.84
2019-02-20T11:54:18.968Z,17.08
2019-02-20T11:56:48.302Z,17.23
2019-02-20T11:59:17.711Z,16.65
2019-02-20T12:01:47.083Z,16.52
2019-02-20T12:04:16.420Z,16.67
2019-02-20T12:06:45.766Z,16.78
2019-02-20T12:09:15.123Z,16.74
2019-02-20T12:11:44.501Z,16.71
2019-02-20T12:14:13.871Z,17.06
2019-02-20T12:16:43.286Z,16.99
2019-02-20T12:19:12.664Z,17.12
2019-02-20T12:21:41.998Z,17.08
2019-02-20T12:24:11.947Z,16.74
2019-02-20T12:26:41.526Z,16.69
2019-02-20T12:29:11.325Z,16.68
2019-02-20T12:31:40.722Z,16.70
2019-02-20T12:34:10.111Z,16.90
2019-02-20T12:36:39.489Z,17.00
2019-02-20T12:39:08.861Z,16.83
2019-02-20T12:41:38.203Z,17.02
2019-02-20T12:44:07.583Z,17.01
2019-02-20T12:46:36.974Z,16.83
2019-02-20T12:49:06.361Z,17.09
2019-02-20T12:51:36.639Z,16.96
2019-02-20T12:54:06.053Z,17.01
2019-02-20T12:56:43.463Z,17.09
2019-02-20T12:59:07.946Z,16.78
2019-02-20T13:01:37.502Z,16.88
2019-02-20T13:04:06.857Z,16.75
2019-02-20T13:06:36.193Z,16.79
2019-02-20T13:09:07.815Z,16.79
2019-02-20T13:11:37.139Z,16.79
2019-02-20T13:14:06.573Z,16.97
2019-02-20T13:16:35.946Z,16.81
2019-02-20T13:19:05.325Z,16.75
2019-02-20T13:21:34.731Z,16.90
2019-02-20T13:24:04.121Z,16.74
2019-02-20T13:26:52.797Z,16.91
2019-02-20T13:29:16.799Z,17.02
2019-02-20T13:31:46.289Z,16.90
2019-02-20T13:34:15.623Z,16.46
2019-02-20T13:36:44.977Z,16.52
2019-02-20T13:39:14.316Z,16.49
2019-02-20T13:41:44.497Z,16.19
2019-02-20T13:44:13.960Z,16.35
2019-02-20T13:46:43.360Z,16.10
2019-02-20T13:49:13.130Z,16.05
2019-02-20T13:51:42.574Z,16.02
2019-02-20T13:54:11.957Z,15.71
2019-02-20T13:56:41.286Z,15.55
2019-02-20T13:59:10.629Z,15.44
2019-02-20T14:01:39.992Z,15.25
2019-02-20T14:04:09.311Z,15.26
2019-02-20T14:06:38.624Z,15.15
2019-02-20T14:09:08.251Z,15.19
2019-02-20T14:11:37.580Z,15.13
2019-02-20T14:14:08.802Z,15.01
2019-02-20T14:16:38.071Z,15.03
2019-02-20T14:19:07.435Z,15.02
2019-02-20T14:21:36.791Z,14.90
2019-02-20T14:24:06.237Z,14.73
2019-02-20T14:26:37.815Z,14.58
2019-02-20T14:29:07.215Z,14.64
2019-02-20T14:31:36.543Z,14.50
2019-02-20T14:34:05.956Z,14.47
2019-02-20T14:36:35.289Z,14.50
2019-02-20T14:39:05.683Z,14.36
2019-02-20T14:41:35.092Z,14.25
2019-02-20T14:44:04.423Z,14.13
2019-02-20T14:46:33.795Z,14.08
2019-02-20T14:49:03.154Z,14.01
2019-02-20T14:51:34.061Z,13.86
2019-02-20T14:54:03.508Z,13.83
2019-02-20T14:56:32.834Z,13.78
2019-02-20T14:59:02.287Z,13.77
2019-02-20T15:01:32.060Z,13.62
2019-02-20T15:04:01.363Z,13.57
2019-02-20T15:06:31.098Z,13.45
2019-02-20T15:09:00.460Z,13.41
2019-02-20T15:11:29.835Z,13.37
2019-02-20T15:13:59.185Z,13.31
2019-02-20T15:16:28.541Z,13.30
2019-02-20T15:18:57.917Z,13.19
2019-02-20T15:21:27.411Z,13.11
2019-02-20T15:23:57.123Z,13.06
2019-02-20T15:26:26.459Z,12.98
2019-02-20T15:28:55.762Z,12.90
2019-02-20T15:31:33.485Z,12.84
2019-02-20T15:33:56.222Z,12.78
2019-02-20T15:36:25.957Z,12.78
2019-02-20T15:38:55.318Z,12.75
2019-02-20T15:41:24.643Z,12.71
2019-02-20T15:43:54.027Z,12.68
2019-02-20T15:46:23.382Z,12.58
2019-02-20T15:48:52.829Z,12.57
2019-02-20T15:51:22.487Z,12.51
2019-02-20T15:53:51.872Z,12.46
2019-02-20T15:56:21.287Z,12.41
2019-02-20T15:58:51.729Z,12.40
2019-02-20T16:01:21.063Z,12.36
2019-02-20T16:03:50.395Z,12.32
2019-02-20T16:06:19.831Z,12.30
2019-02-20T16:08:49.311Z,12.25
2019-02-20T16:11:18.647Z,12.21
2019-02-20T16:13:48.039Z,12.10
2019-02-20T16:16:17.373Z,12.05
2019-02-20T16:18:46.745Z,11.98
2019-02-20T16:21:16.124Z,11.93
2019-02-20T16:23:45.646Z,11.90
2019-02-20T16:26:15.028Z,11.84
2019-02-20T16:28:44.402Z,11.81
2019-02-20T16:31:13.738Z,11.72
2019-02-20T16:33:43.128Z,11.64
2019-02-20T16:36:12.470Z,11.58
2019-02-20T16:38:42.090Z,11.56
2019-02-20T16:41:11.484Z,11.49
2019-02-20T16:43:42.432Z,11.45
2019-02-20T16:46:11.832Z,11.41
2019-02-20T16:48:43.149Z,11.31
2019-02-20T16:51:12.626Z,11.27
2019-02-20T16:53:42.397Z,11.28
2019-02-20T16:56:11.868Z,11.20
2019-02-20T16:58:43.115Z,11.15
2019-02-20T17:01:12.272Z,11.13
2019-02-20T17:03:41.795Z,10.23
2019-02-20T17:06:12.714Z,10.99
2019-02-20T17:08:42.323Z,10.95
2019-02-20T17:11:11.675Z,10.89
2019-02-20T17:13:41.017Z,10.85
2019-02-20T17:16:10.502Z,10.83
2019-02-20T17:18:40.054Z,10.80
2019-02-20T17:21:09.522Z,10.75
2019-02-20T17:23:39.067Z,10.72
2019-02-20T17:26:08.501Z,10.66
2019-02-20T17:28:37.856Z,10.61
2019-02-20T17:31:07.267Z,10.55
2019-02-20T17:33:36.626Z,10.50
2019-02-20T17:36:05.979Z,10.43
2019-02-20T17:38:35.700Z,10.42
2019-02-20T17:41:05.368Z,10.34
2019-02-20T17:43:34.748Z,10.25
2019-02-20T17:46:04.236Z,10.16
2019-02-20T17:48:33.591Z,10.10
2019-02-20T17:51:02.979Z,10.07
2019-02-20T17:53:33.154Z,10.00
2019-02-20T17:56:02.589Z,9.94
2019-02-20T17:58:32.003Z,9.88
2019-02-20T18:01:03.047Z,9.83
2019-02-20T18:03:32.377Z,9.78
2019-02-20T18:06:01.710Z,9.72
2019-02-20T18:08:31.398Z,9.63
2019-02-20T18:11:01.534Z,9.53
2019-02-20T18:13:31.488Z,9.55
2019-02-20T18:16:00.843Z,9.51
2019-02-20T18:18:30.507Z,9.49
2019-02-20T18:20:59.864Z,9.46
2019-02-20T18:23:29.566Z,9.47
2019-02-20T18:25:58.959Z,9.47
2019-02-20T18:28:28.289Z,9.46
2019-02-20T18:30:57.659Z,9.39
2019-02-20T18:33:27.013Z,9.33
2019-02-20T18:36:01.618Z,9.32
2019-02-20T18:38:30.987Z,9.34
2019-02-20T18:41:00.344Z,9.36
2019-02-20T18:43:29.710Z,9.37
2019-02-20T18:45:59.044Z,9.40
2019-02-20T18:48:28.406Z,9.36
2019-02-20T18:50:57.760Z,9.28
2019-02-20T18:53:27.079Z,9.26
2019-02-20T18:55:56.572Z,9.26
2019-02-20T18:58:33.662Z,9.19
2019-02-20T19:00:59.027Z,9.21
2019-02-20T19:03:28.539Z,9.19
2019-02-20T19:05:57.872Z,9.16
2019-02-20T19:08:44.831Z,9.08
2019-02-20T19:11:22.230Z,9.07
2019-02-20T19:14:03.021Z,9.04
2019-02-20T19:17:08.145Z,9.04
2019-02-20T19:20:04.204Z,8.99
2019-02-20T19:22:45.409Z,9.00
2019-02-20T19:25:57.607Z,8.94
2019-02-20T19:28:44.043Z,8.94
2019-02-20T19:32:00.025Z,8.90
2019-02-20T19:35:02.746Z,8.89
2019-02-20T19:38:07.531Z,8.87
2019-02-20T19:41:06.957Z,8.82
2019-02-20T19:44:02.632Z,8.81
2019-02-20T19:47:13.246Z,8.77
2019-02-20T19:50:33.246Z,8.75
2019-02-20T19:53:34.902Z,8.74
2019-02-20T19:56:34.307Z,8.73
2019-02-20T19:59:44.729Z,8.69
2019-02-20T20:03:10.142Z,8.69
2019-02-20T20:06:31.707Z,9.20
2019-02-20T20:09:30.844Z,8.92
2019-02-20T20:12:39.948Z,8.97
2019-02-20T20:15:23.026Z,9.13
2019-02-20T20:18:28.987Z,8.73
2019-02-20T20:21:41.722Z,8.56
2019-02-20T20:24:54.618Z,8.46
2019-02-20T20:28:16.351Z,8.54
2019-02-20T20:31:28.458Z,8.56
2019-02-20T20:35:00.019Z,8.51
2019-02-20T20:37:41.517Z,8.43
2019-02-20T20:40:35.102Z,8.38
2019-02-20T20:43:43.994Z,8.32
2019-02-20T20:46:50.071Z,8.27
2019-02-20T20:49:35.269Z,8.22
2019-02-20T20:52:46.603Z,8.15
2019-02-20T20:56:21.319Z,8.11
2019-02-20T20:59:20.760Z,8.11
2019-02-20T21:01:55.326Z,8.09
2019-02-20T21:05:00.687Z,8.16
2019-02-20T21:07:52.848Z,8.16
2019-02-20T21:10:54.213Z,8.23
2019-02-20T21:13:50.064Z,8.23
2019-02-20T21:17:06.403Z,8.19
2019-02-20T21:19:56.476Z,8.22
2019-02-20T21:23:19.860Z,8.28
2019-02-20T21:26:30.176Z,8.29
2019-02-20T21:29:30.734Z,8.32
2019-02-20T21:32:43.416Z,8.32
2019-02-20T21:35:52.955Z,8.49
2019-02-20T21:38:49.422Z,8.46
2019-02-20T21:41:58.733Z,8.47
2019-02-20T21:44:45.761Z,8.35
2019-02-20T21:48:01.021Z,8.19
2019-02-20T21:51:20.587Z,8.35
2019-02-20T21:54:58.418Z,8.31
2019-02-20T21:58:05.447Z,8.24
2019-02-20T22:01:04.966Z,8.29
2019-02-20T22:04:07.345Z,8.23
2019-02-20T22:07:20.544Z,8.30
2019-02-20T22:10:29.682Z,8.31
2019-02-20T22:13:42.005Z,8.20
2019-02-20T22:16:40.977Z,8.30
2019-02-20T22:20:00.514Z,8.11
2019-02-20T22:23:14.142Z,8.16
2019-02-20T22:25:57.241Z,8.06
2019-02-20T22:29:05.031Z,7.99
2019-02-20T22:32:24.360Z,7.94
2019-02-20T22:35:21.979Z,7.88
2019-02-20T22:38:41.360Z,7.79
2019-02-20T22:42:06.938Z,7.74
2019-02-20T22:45:17.739Z,7.75
2019-02-20T22:48:09.768Z,7.76
2019-02-20T22:51:16.555Z,7.66
2019-02-20T22:54:45.407Z,7.65
2019-02-20T22:57:42.845Z,7.72
2019-02-20T23:01:08.051Z,7.67
2019-02-20T23:03:57.725Z,7.60
2019-02-20T23:06:58.847Z,7.72
2019-02-20T23:09:59.305Z,7.80
2019-02-20T23:12:54.351Z,7.85
2019-02-20T23:15:23.699Z,7.94
2019-02-20T23:17:53.051Z,8.03
2019-02-20T23:20:22.396Z,8.03
2019-02-20T23:22:51.735Z,8.05
2019-02-20T23:25:21.079Z,8.06
2019-02-20T23:27:50.514Z,8.12
2019-02-20T23:30:19.887Z,8.13
2019-02-20T23:32:49.231Z,8.10
2019-02-20T23:35:18.584Z,8.14
2019-02-20T23:37:47.963Z,8.15
2019-02-20T23:40:17.369Z,8.14
2019-02-20T23:42:49.001Z,8.12
2019-02-20T23:45:17.845Z,8.09
2019-02-20T23:47:47.169Z,8.17
2019-02-20T23:50:16.501Z,8.14
2019-02-20T23:52:45.845Z,8.01
2019-02-20T23:55:15.202Z,7.94
2019-02-20T23:57:44.543Z,7.78
